Time;durP1;ratioP1;P1;durP2;ratioP2;P2;SDS_P1;SDS_P2;PMS_P1;PMS_P2;Temp;Humidity;BMP_temperature;BMP_pressure;BME280_temperature;BME280_humidity;BME280_pressure;Samples;Min_cycle;Max_cycle;Signal;HPM_P1;HPM_P2
2022/09/03 00:01:23;;;;;;;27.67;24.55;;;;;;;;;;5117377;27;20041;-78
2022/09/03 00:03:56;;;;;;;28.98;24.52;;;;;;;;;;5120417;27;20031;-77
2022/09/03 00:06:32;;;;;;;30.02;25.48;;;;;;;;;;5118069;27;20024;-78
2022/09/03 00:09:02;;;;;;;32.85;26.98;;;;;;;;;;5105349;27;20341;-80
2022/09/03 00:11:32;;;;;;;31.17;27.13;;;;;;;;;;5104254;27;20020;-77
2022/09/03 00:14:06;;;;;;;31.85;26.98;;;;;;;;;;5120200;27;20420;-79
2022/09/03 00:16:42;;;;;;;31.08;26.02;;;;;;;;;;5119531;27;21062;-79
2022/09/03 00:19:07;;;;;;;29.73;25.98;;;;;;;;;;5113877;27;20023;-78
2022/09/03 00:21:38;;;;;;;30.52;27.23;;;;;;;;;;5110393;27;20016;-79
2022/09/03 00:24:06;;;;;;;29.60;26.50;;;;;;;;;;5114479;27;20118;-79
2022/09/03 00:26:34;;;;;;;29.20;25.55;;;;;;;;;;5113371;27;20115;-79
2022/09/03 00:29:02;;;;;;;29.42;25.67;;;;;;;;;;5110559;27;20023;-77
2022/09/03 00:31:31;;;;;;;27.60;24.65;;;;;;;;;;5091291;27;20323;-78
2022/09/03 00:34:03;;;;;;;28.65;25.10;;;;;;;;;;5095452;27;20034;-79
2022/09/03 00:36:42;;;;;;;26.90;24.10;;;;;;;;;;5117849;27;20487;-80
2022/09/03 00:39:15;;;;;;;27.42;24.48;;;;;;;;;;5116122;27;20421;-80
2022/09/03 00:41:59;;;;;;;27.75;24.88;;;;;;;;;;5110534;27;20071;-79
2022/09/03 00:44:25;;;;;;;28.73;25.73;;;;;;;;;;5109484;27;20365;-77
2022/09/03 00:46:56;;;;;;;27.77;24.77;;;;;;;;;;5100268;27;20023;-78
2022/09/03 00:49:25;;;;;;;29.80;26.48;;;;;;;;;;5117024;27;20042;-78
2022/09/03 00:52:02;;;;;;;29.83;26.48;;;;;;;;;;5119216;27;20446;-79
2022/09/03 00:54:31;;;;;;;28.73;25.65;;;;;;;;;;5120916;27;20034;-78
2022/09/03 00:56:58;;;;;;;27.98;25.13;;;;;;;;;;5113561;27;20031;-81
2022/09/03 00:59:23;;;;;;;29.83;26.58;;;;;;;;;;5103044;27;20027;-81
2022/09/03 01:01:51;;;;;;;31.27;26.30;;;;;;;;;;5106936;27;20039;-78
2022/09/03 01:04:32;;;;;;;28.73;25.10;;;;;;;;;;5116758;27;20097;-77
2022/09/03 01:07:03;;;;;;;28.63;25.58;;;;;;;;;;5119821;27;20028;-77
2022/09/03 01:09:29;;;;;;;29.40;26.17;;;;;;;;;;5116528;27;20535;-78
2022/09/03 01:11:58;;;;;;;30.40;26.00;;;;;;;;;;5119420;27;20106;-81
2022/09/03 01:14:23;;;;;;;;;;;;;;;;;;5117409;27;20124;-76
2022/09/03 01:16:52;;;;;;;26.53;23.77;;;;;;;;;;5121441;27;19964;-80
2022/09/03 01:19:17;;;;;;;27.42;24.55;;;;;;;;;;5120063;27;20030;-82
2022/09/03 01:22:02;;;;;;;28.02;24.45;;;;;;;;;;5106169;27;20351;-76
2022/09/03 01:24:52;;;;;;;26.50;23.75;;;;;;;;;;5117236;27;20126;-80
2022/09/03 01:27:20;;;;;;;25.95;23.25;;;;;;;;;;5106067;27;20039;-83
2022/09/03 01:30:01;;;;;;;26.67;23.85;;;;;;;;;;5118753;27;20026;-77
2022/09/03 01:32:42;;;;;;;28.88;23.98;;;;;;;;;;5117995;27;20081;-80
2022/09/03 01:35:23;;;;;;;27.35;24.48;;;;;;;;;;5115815;27;20031;-81
2022/09/03 01:37:57;;;;;;;30.45;25.80;;;;;;;;;;5121638;27;20023;-78
2022/09/03 01:40:26;;;;;;;33.97;25.38;;;;;;;;;;5121271;27;20023;-79
2022/09/03 01:43:17;;;;;;;29.98;25.13;;;;;;;;;;5120686;27;20108;-80
2022/09/03 01:45:45;;;;;;;26.85;24.08;;;;;;;;;;5119950;27;20061;-78
2022/09/03 01:48:25;;;;;;;26.27;23.58;;;;;;;;;;5117668;27;20034;-77
2022/09/03 01:51:06;;;;;;;26.88;24.02;;;;;;;;;;5115615;27;20118;-77
2022/09/03 01:53:51;;;;;;;27.13;24.15;;;;;;;;;;5116110;27;20027;-77
2022/09/03 01:56:35;;;;;;;36.13;25.05;;;;;;;;;;5118195;27;20427;-77
2022/09/03 01:59:20;;;;;;;28.70;25.65;;;;;;;;;;5111629;27;20115;-79
2022/09/03 02:01:49;;;;;;;31.30;25.60;;;;;;;;;;5107617;27;20020;-78
2022/09/03 02:04:22;;;;;;;28.17;23.95;;;;;;;;;;5115173;27;20501;-77
2022/09/03 02:06:49;;;;;;;28.52;24.40;;;;;;;;;;5114209;27;20072;-79
2022/09/03 02:09:15;;;;;;;27.08;24.10;;;;;;;;;;5112322;27;20469;-78
2022/09/03 02:11:42;;;;;;;27.05;24.25;;;;;;;;;;5115728;27;20373;-79
2022/09/03 02:14:08;;;;;;;26.52;23.52;;;;;;;;;;5119595;27;20139;-78
2022/09/03 02:16:34;;;;;;;27.15;23.83;;;;;;;;;;5119284;27;20023;-76
2022/09/03 02:19:04;;;;;;;28.27;24.80;;;;;;;;;;5113587;27;20019;-76
2022/09/03 02:21:34;;;;;;;30.83;25.90;;;;;;;;;;5107354;27;21655;-77
2022/09/03 02:23:59;;;;;;;29.83;25.80;;;;;;;;;;5117923;27;20057;-77
2022/09/03 02:26:25;;;;;;;30.42;24.65;;;;;;;;;;5117060;27;20114;-78
2022/09/03 02:28:51;;;;;;;30.08;24.73;;;;;;;;;;5091638;27;20020;-76
2022/09/03 02:31:17;;;;;;;28.05;25.05;;;;;;;;;;5108253;27;20079;-76
2022/09/03 02:33:44;;;;;;;28.17;24.63;;;;;;;;;;5118001;27;20034;-76
2022/09/03 02:36:11;;;;;;;28.65;25.25;;;;;;;;;;5119338;27;20034;-77
2022/09/03 02:38:36;;;;;;;28.73;25.38;;;;;;;;;;5115097;27;20019;-76
2022/09/03 02:41:02;;;;;;;29.13;25.98;;;;;;;;;;5115529;27;20088;-77
2022/09/03 02:43:43;;;;;;;33.08;25.85;;;;;;;;;;5115251;27;20043;-77
2022/09/03 02:46:12;;;;;;;29.75;25.08;;;;;;;;;;5117125;27;20019;-79
2022/09/03 02:48:37;;;;;;;28.73;25.63;;;;;;;;;;5115802;28;20035;-78
2022/09/03 02:51:03;;;;;;;28.63;25.58;;;;;;;;;;5118852;28;20084;-79
2022/09/03 02:53:29;;;;;;;28.40;23.88;;;;;;;;;;5118401;28;20457;-76
2022/09/03 02:55:58;;;;;;;27.08;24.23;;;;;;;;;;5118176;28;20023;-76
2022/09/03 02:58:24;;;;;;;27.02;24.23;;;;;;;;;;5115109;28;20027;-77
2022/09/03 03:00:50;;;;;;;25.80;23.10;;;;;;;;;;5115618;28;20491;-77
2022/09/03 03:03:15;;;;;;;26.55;22.77;;;;;;;;;;5118723;28;20071;-79
2022/09/03 03:05:46;;;;;;;24.17;21.63;;;;;;;;;;5116429;28;20016;-78
2022/09/03 03:08:13;;;;;;;27.10;22.05;;;;;;;;;;5114166;28;20064;-80
2022/09/03 03:10:40;;;;;;;26.48;23.60;;;;;;;;;;5119374;28;20388;-78
2022/09/03 03:13:05;;;;;;;24.55;21.95;;;;;;;;;;5115708;28;20023;-80
2022/09/03 03:15:31;;;;;;;24.95;22.40;;;;;;;;;;5117518;28;20080;-76
2022/09/03 03:17:56;;;;;;;25.92;23.38;;;;;;;;;;5116746;28;20065;-81
2022/09/03 03:20:22;;;;;;;25.27;22.27;;;;;;;;;;5120604;27;20350;-79
2022/09/03 03:22:47;;;;;;;23.80;21.45;;;;;;;;;;5119899;27;20087;-79
2022/09/03 03:25:13;;;;;;;26.52;23.77;;;;;;;;;;5119386;27;20036;-79
2022/09/03 03:27:40;;;;;;;26.13;23.35;;;;;;;;;;5118881;27;20089;-76
2022/09/03 03:30:08;;;;;;;27.17;23.67;;;;;;;;;;5117408;27;20050;-77
2022/09/03 03:32:34;;;;;;;25.27;22.42;;;;;;;;;;5119687;27;20027;-76
2022/09/03 03:34:59;;;;;;;26.42;23.63;;;;;;;;;;5118428;27;20027;-78
2022/09/03 03:37:24;;;;;;;26.15;23.45;;;;;;;;;;5115709;27;20016;-76
2022/09/03 03:39:50;;;;;;;25.98;23.27;;;;;;;;;;5118212;27;20036;-78
2022/09/03 03:42:15;;;;;;;25.98;23.17;;;;;;;;;;5121312;27;20142;-78
2022/09/03 03:44:42;;;;;;;25.98;22.65;;;;;;;;;;5103929;27;20031;-76
2022/09/03 03:47:08;;;;;;;27.10;24.33;;;;;;;;;;5111605;27;20298;-77
2022/09/03 03:49:33;;;;;;;25.42;22.05;;;;;;;;;;5121011;27;20357;-78
2022/09/03 03:51:59;;;;;;;25.13;22.58;;;;;;;;;;5119699;27;20082;-79
2022/09/03 03:54:24;;;;;;;23.63;21.23;;;;;;;;;;5121072;27;20035;-77
2022/09/03 03:56:50;;;;;;;25.77;21.30;;;;;;;;;;5118421;27;20027;-78
2022/09/03 03:59:15;;;;;;;26.10;23.33;;;;;;;;;;5119987;27;20035;-78
2022/09/03 04:01:40;;;;;;;25.10;22.50;;;;;;;;;;5120297;27;20088;-79
2022/09/03 04:04:06;;;;;;;28.05;21.95;;;;;;;;;;5109663;27;20041;-77
2022/09/03 04:06:31;;;;;;;25.17;22.48;;;;;;;;;;5119450;27;20031;-79
2022/09/03 04:08:56;;;;;;;25.88;23.17;;;;;;;;;;5111491;27;20448;-83
2022/09/03 04:11:22;;;;;;;24.42;21.98;;;;;;;;;;5110187;27;20028;-79
2022/09/03 04:13:48;;;;;;;23.65;21.33;;;;;;;;;;5100457;27;20047;-78
2022/09/03 04:16:24;;;;;;;24.50;21.90;;;;;;;;;;5118515;27;20052;-79
2022/09/03 04:18:50;;;;;;;23.90;21.38;;;;;;;;;;5120117;27;20049;-81
2022/09/03 04:21:19;;;;;;;23.63;20.92;;;;;;;;;;5116912;27;20102;-77
2022/09/03 04:23:45;;;;;;;23.98;21.17;;;;;;;;;;5119959;27;20453;-79
2022/09/03 04:26:12;;;;;;;24.30;21.73;;;;;;;;;;5122927;27;20046;-79
2022/09/03 04:28:38;;;;;;;22.55;20.50;;;;;;;;;;5123651;27;20036;-78
2022/09/03 04:31:05;;;;;;;24.83;22.25;;;;;;;;;;5098687;27;20016;-77
2022/09/03 04:33:31;;;;;;;23.52;21.30;;;;;;;;;;5119054;27;20157;-80
2022/09/03 04:36:08;;;;;;;24.27;21.80;;;;;;;;;;5119868;27;20118;-78
2022/09/03 04:38:35;;;;;;;24.60;21.92;;;;;;;;;;5119018;27;20027;-77
2022/09/03 04:41:00;;;;;;;25.75;22.20;;;;;;;;;;5116856;27;20114;-81
2022/09/03 04:43:26;;;;;;;22.08;19.60;;;;;;;;;;5112998;27;20864;-77
2022/09/03 04:45:55;;;;;;;26.13;22.05;;;;;;;;;;5112175;27;20027;-80
2022/09/03 04:48:20;;;;;;;24.40;20.02;;;;;;;;;;5117750;27;20028;-79
2022/09/03 04:50:45;;;;;;;24.65;21.98;;;;;;;;;;5100274;27;20023;-79
2022/09/03 04:53:11;;;;;;;23.45;21.05;;;;;;;;;;5099891;27;20019;-82
2022/09/03 04:55:36;;;;;;;24.63;22.00;;;;;;;;;;5117367;27;20421;-78
2022/09/03 04:58:02;;;;;;;22.90;20.48;;;;;;;;;;5117736;27;20068;-78
2022/09/03 05:00:28;;;;;;;26.73;21.40;;;;;;;;;;5101982;27;20030;-77
2022/09/03 05:02:53;;;;;;;23.05;20.65;;;;;;;;;;5107389;27;20381;-79
2022/09/03 05:05:18;;;;;;;22.48;20.27;;;;;;;;;;5107728;27;20031;-84
2022/09/03 05:07:44;;;;;;;22.02;19.80;;;;;;;;;;5111855;27;20023;-78
2022/09/03 05:10:19;;;;;;;22.73;20.42;;;;;;;;;;5105187;27;20047;-77
2022/09/03 05:12:56;;;;;;;21.80;19.60;;;;;;;;;;5087745;27;20034;-78
2022/09/03 05:15:21;;;;;;;22.60;20.35;;;;;;;;;;5085119;27;20034;-78
2022/09/03 05:17:47;;;;;;;20.60;18.60;;;;;;;;;;5101892;27;20022;-78
2022/09/03 05:20:13;;;;;;;22.08;19.77;;;;;;;;;;5090807;27;20432;-77
2022/09/03 05:22:39;;;;;;;21.25;19.00;;;;;;;;;;5086973;27;20042;-79
2022/09/03 05:25:04;;;;;;;21.45;19.27;;;;;;;;;;5115853;27;20015;-79
2022/09/03 05:27:30;;;;;;;21.23;18.83;;;;;;;;;;5119868;27;20027;-78
2022/09/03 05:29:55;;;;;;;22.48;20.10;;;;;;;;;;5117596;27;20023;-79
2022/09/03 05:32:21;;;;;;;19.80;17.70;;;;;;;;;;5109624;27;20334;-80
2022/09/03 05:34:46;;;;;;;18.13;16.33;;;;;;;;;;5108037;27;20023;-82
2022/09/03 05:37:12;;;;;;;19.17;17.17;;;;;;;;;;5106184;27;20478;-79
2022/09/03 05:39:37;;;;;;;18.02;16.23;;;;;;;;;;5111919;27;20031;-77
2022/09/03 05:42:02;;;;;;;19.20;17.33;;;;;;;;;;5116579;27;20549;-79
2022/09/03 05:44:28;;;;;;;22.15;17.08;;;;;;;;;;5119281;27;20040;-81
2022/09/03 05:46:53;;;;;;;19.55;15.98;;;;;;;;;;5118648;27;20132;-77
2022/09/03 05:49:19;;;;;;;19.55;17.55;;;;;;;;;;5116490;27;20038;-79
2022/09/03 05:51:45;;;;;;;19.30;17.50;;;;;;;;;;5108096;27;20027;-80
2022/09/03 05:54:10;;;;;;;18.42;16.73;;;;;;;;;;5108804;27;20031;-79
2022/09/03 05:56:38;;;;;;;18.42;16.48;;;;;;;;;;5104358;27;20383;-80
2022/09/03 05:59:06;;;;;;;18.42;16.35;;;;;;;;;;5116083;27;20029;-77
2022/09/03 06:01:32;;;;;;;18.67;16.77;;;;;;;;;;5115663;27;20425;-82
2022/09/03 06:04:01;;;;;;;19.23;17.42;;;;;;;;;;5106095;27;20401;-76
2022/09/03 06:06:27;;;;;;;16.80;15.10;;;;;;;;;;5114697;27;20033;-78
2022/09/03 06:08:53;;;;;;;17.45;15.65;;;;;;;;;;5116652;27;20430;-78
2022/09/03 06:11:20;;;;;;;17.58;15.90;;;;;;;;;;5114825;27;20138;-77
2022/09/03 06:13:46;;;;;;;17.55;15.65;;;;;;;;;;5115434;27;20043;-76
2022/09/03 06:16:12;;;;;;;15.85;14.45;;;;;;;;;;5117682;27;20026;-74
2022/09/03 06:18:37;;;;;;;16.25;14.60;;;;;;;;;;5118051;27;20442;-79
2022/09/03 06:21:04;;;;;;;15.07;13.50;;;;;;;;;;5116562;27;20035;-77
2022/09/03 06:23:30;;;;;;;14.90;13.50;;;;;;;;;;5108176;27;20450;-77
2022/09/03 06:26:12;;;;;;;13.40;12.15;;;;;;;;;;5101236;27;20019;-76
2022/09/03 06:28:38;;;;;;;14.57;13.27;;;;;;;;;;5107705;27;20091;-79
2022/09/03 06:31:04;;;;;;;15.00;13.68;;;;;;;;;;5115616;27;20019;-77
2022/09/03 06:33:31;;;;;;;12.68;11.48;;;;;;;;;;5117755;27;20023;-77
2022/09/03 06:35:57;;;;;;;11.82;10.60;;;;;;;;;;5109805;27;20101;-78
2022/09/03 06:38:23;;;;;;;14.38;13.07;;;;;;;;;;5108083;27;20423;-80
2022/09/03 06:40:55;;;;;;;11.57;10.57;;;;;;;;;;5112071;27;20030;-78
2022/09/03 06:43:22;;;;;;;10.65;9.75;;;;;;;;;;5111105;27;20054;-77
2022/09/03 06:45:57;;;;;;;10.73;9.82;;;;;;;;;;5100891;27;20446;-77
2022/09/03 06:48:23;;;;;;;9.05;8.35;;;;;;;;;;5082243;28;20358;-77
2022/09/03 06:51:02;;;;;;;12.38;11.27;;;;;;;;;;5104448;27;20027;-78
2022/09/03 06:53:28;;;;;;;9.27;8.57;;;;;;;;;;5098876;28;20059;-83
2022/09/03 06:55:58;;;;;;;10.10;8.70;;;;;;;;;;5100849;28;20438;-81
2022/09/03 06:58:24;;;;;;;8.93;8.20;;;;;;;;;;5110230;28;20452;-79
2022/09/03 07:00:51;;;;;;;10.52;9.52;;;;;;;;;;5103698;28;20028;-81
2022/09/03 07:03:17;;;;;;;10.80;9.82;;;;;;;;;;5102095;28;20039;-77
2022/09/03 07:05:43;;;;;;;9.45;8.65;;;;;;;;;;5100885;28;20031;-77
2022/09/03 07:08:09;;;;;;;9.85;8.95;;;;;;;;;;5117447;28;20031;-77
2022/09/03 07:10:37;;;;;;;10.98;10.00;;;;;;;;;;5104632;28;20343;-78
2022/09/03 07:13:05;;;;;;;9.27;8.48;;;;;;;;;;5099945;28;20035;-79
2022/09/03 07:15:31;;;;;;;8.68;7.88;;;;;;;;;;5105514;28;20019;-78
2022/09/03 07:17:57;;;;;;;10.88;9.90;;;;;;;;;;5092981;28;20039;-81
2022/09/03 07:20:22;;;;;;;8.88;8.07;;;;;;;;;;5111348;28;20473;-78
2022/09/03 07:22:48;;;;;;;10.45;9.55;;;;;;;;;;5106224;28;20039;-77
2022/09/03 07:25:13;;;;;;;8.95;8.25;;;;;;;;;;5102002;28;20032;-76
2022/09/03 07:27:38;;;;;;;8.68;7.97;;;;;;;;;;5099625;28;20134;-79
2022/09/03 07:30:08;;;;;;;9.35;8.45;;;;;;;;;;5097761;28;20380;-78
2022/09/03 07:32:36;;;;;;;8.32;7.63;;;;;;;;;;5107128;28;20096;-78
2022/09/03 07:35:02;;;;;;;8.98;8.27;;;;;;;;;;5108294;28;20019;-77
2022/09/03 07:37:27;;;;;;;9.75;8.93;;;;;;;;;;5113432;28;20029;-78
2022/09/03 07:39:52;;;;;;;12.70;11.45;;;;;;;;;;5102590;28;20023;-78
2022/09/03 07:42:19;;;;;;;9.32;8.63;;;;;;;;;;5108484;28;20434;-80
2022/09/03 07:44:45;;;;;;;7.93;7.32;;;;;;;;;;5108124;28;20027;-76
2022/09/03 07:47:10;;;;;;;9.13;8.32;;;;;;;;;;5084223;28;20031;-78
2022/09/03 07:49:35;;;;;;;8.73;8.05;;;;;;;;;;5102092;28;20035;-77
2022/09/03 07:52:01;;;;;;;8.35;7.65;;;;;;;;;;5099501;28;20430;-78
2022/09/03 07:54:27;;;;;;;9.02;8.18;;;;;;;;;;5099254;28;20534;-77
2022/09/03 07:56:52;;;;;;;9.38;8.57;;;;;;;;;;5103990;28;20047;-77
2022/09/03 07:59:19;;;;;;;10.95;9.95;;;;;;;;;;5115166;28;20103;-76
2022/09/03 08:01:44;;;;;;;12.95;11.55;;;;;;;;;;5117828;28;20023;-78
2022/09/03 08:04:10;;;;;;;22.63;19.20;;;;;;;;;;5099485;28;20491;-78
2022/09/03 08:06:36;;;;;;;16.75;15.25;;;;;;;;;;5115569;27;20024;-78
2022/09/03 08:09:03;;;;;;;12.95;9.77;;;;;;;;;;5118142;27;20025;-76
2022/09/03 08:11:30;;;;;;;11.93;10.80;;;;;;;;;;5120015;27;20022;-77
2022/09/03 08:14:00;;;;;;;10.15;9.27;;;;;;;;;;5119481;27;20035;-78
2022/09/03 08:16:25;;;;;;;10.43;9.48;;;;;;;;;;5119427;27;20051;-79
2022/09/03 08:18:51;;;;;;;8.77;8.10;;;;;;;;;;5119640;27;21100;-79
2022/09/03 08:21:18;;;;;;;9.07;8.27;;;;;;;;;;5119594;27;20162;-78
2022/09/03 08:23:48;;;;;;;7.97;7.28;;;;;;;;;;5116136;27;20443;-76
2022/09/03 08:26:14;;;;;;;9.02;8.30;;;;;;;;;;5101857;27;20033;-77
2022/09/03 08:28:40;;;;;;;10.20;8.45;;;;;;;;;;5105380;27;20031;-82
2022/09/03 08:31:10;;;;;;;7.80;7.20;;;;;;;;;;5103753;27;20019;-76
2022/09/03 08:33:36;;;;;;;7.03;6.53;;;;;;;;;;5113693;27;20031;-77
2022/09/03 08:36:43;;;;;;;6.70;6.20;;;;;;;;;;5101495;27;20035;-76
2022/09/03 08:39:09;;;;;;;6.65;6.15;;;;;;;;;;5016769;28;20075;-77
2022/09/03 08:41:37;;;;;;;6.03;5.53;;;;;;;;;;5018268;28;20087;-77
2022/09/03 08:44:09;;;;;;;6.03;5.53;;;;;;;;;;5021153;28;20059;-76
2022/09/03 08:46:53;;;;;;;6.82;6.28;;;;;;;;;;5019798;28;20024;-77
2022/09/03 08:49:24;;;;;;;10.00;8.98;;;;;;;;;;5021097;28;20115;-77
2022/09/03 08:51:51;;;;;;;9.18;8.38;;;;;;;;;;5016641;28;20052;-79
2022/09/03 08:54:17;;;;;;;9.02;8.23;;;;;;;;;;5018382;28;20041;-76
2022/09/03 08:56:43;;;;;;;6.68;6.18;;;;;;;;;;5019340;28;20043;-76
2022/09/03 08:59:08;;;;;;;6.93;6.43;;;;;;;;;;5004102;28;20109;-77
2022/09/03 09:01:50;;;;;;;5.63;5.22;;;;;;;;;;5017859;28;20037;-77
2022/09/03 09:04:25;;;;;;;5.30;4.90;;;;;;;;;;5019610;28;20049;-80
2022/09/03 09:07:08;;;;;;;5.55;5.07;;;;;;;;;;5018831;28;20049;-76
2022/09/03 09:09:54;;;;;;;5.38;4.97;;;;;;;;;;5049335;27;20038;-76
2022/09/03 09:12:22;;;;;;;4.80;4.40;;;;;;;;;;5102158;27;20028;-82
2022/09/03 09:15:06;;;;;;;5.90;5.40;;;;;;;;;;5100198;27;20032;-77
2022/09/03 09:17:51;;;;;;;5.50;5.10;;;;;;;;;;5100123;27;20030;-78
2022/09/03 09:20:34;;;;;;;5.68;5.13;;;;;;;;;;5097247;27;20027;-78
2022/09/03 09:23:07;;;;;;;4.90;4.55;;;;;;;;;;5100807;27;20035;-74
2022/09/03 09:25:38;;;;;;;6.85;5.65;;;;;;;;;;5101672;27;20208;-76
2022/09/03 09:28:15;;;;;;;7.38;5.32;;;;;;;;;;5100184;27;21061;-76
2022/09/03 09:30:41;;;;;;;5.30;4.90;;;;;;;;;;5104662;27;20135;-82
2022/09/03 09:33:06;;;;;;;5.50;5.10;;;;;;;;;;5102955;27;20110;-76
2022/09/03 09:35:31;;;;;;;6.55;6.05;;;;;;;;;;5106898;27;20035;-79
2022/09/03 09:37:59;;;;;;;5.47;5.07;;;;;;;;;;5105615;27;20027;-77
2022/09/03 09:40:44;;;;;;;6.63;6.13;;;;;;;;;;5100666;27;20102;-78
2022/09/03 09:43:14;;;;;;;6.57;6.07;;;;;;;;;;5096855;27;20096;-76
2022/09/03 09:45:41;;;;;;;8.77;8.02;;;;;;;;;;5097178;27;20027;-76
2022/09/03 09:48:09;;;;;;;7.18;6.68;;;;;;;;;;5097809;27;20442;-75
2022/09/03 09:50:35;;;;;;;7.80;7.10;;;;;;;;;;5108136;27;20046;-77
2022/09/03 09:53:04;;;;;;;7.78;7.07;;;;;;;;;;5097187;27;20105;-77
2022/09/03 09:55:29;;;;;;;6.97;6.38;;;;;;;;;;5106780;27;20015;-81
2022/09/03 09:58:07;;;;;;;6.50;5.90;;;;;;;;;;5092266;27;20104;-81
2022/09/03 10:00:36;;;;;;;6.63;6.13;;;;;;;;;;5109913;27;20429;-77
2022/09/03 10:03:06;;;;;;;6.60;6.00;;;;;;;;;;5113777;27;20037;-81
2022/09/03 10:05:37;;;;;;;6.70;6.10;;;;;;;;;;5116035;27;20036;-78
2022/09/03 10:08:05;;;;;;;5.95;5.43;;;;;;;;;;5116380;27;20334;-83
2022/09/03 10:10:38;;;;;;;6.18;5.78;;;;;;;;;;5107141;27;20031;-77
2022/09/03 10:13:08;;;;;;;6.45;5.95;;;;;;;;;;5115175;27;20036;-76
2022/09/03 10:15:44;;;;;;;6.00;5.60;;;;;;;;;;5113152;27;20034;-75
2022/09/03 10:18:15;;;;;;;5.47;5.07;;;;;;;;;;5115773;27;20111;-76
2022/09/03 10:20:41;;;;;;;5.65;5.25;;;;;;;;;;5113166;27;20116;-80
2022/09/03 10:23:09;;;;;;;6.60;6.00;;;;;;;;;;5115358;27;20565;-79
2022/09/03 10:25:42;;;;;;;7.43;6.73;;;;;;;;;;5113512;27;20015;-78
2022/09/03 10:28:09;;;;;;;6.95;6.45;;;;;;;;;;5109438;27;20027;-78
2022/09/03 10:30:46;;;;;;;7.40;6.65;;;;;;;;;;5110467;27;20487;-79
2022/09/03 10:33:17;;;;;;;6.43;5.95;;;;;;;;;;5112021;27;20031;-76
2022/09/03 10:35:46;;;;;;;5.80;5.30;;;;;;;;;;5113803;27;20024;-79
2022/09/03 10:38:31;;;;;;;6.37;5.87;;;;;;;;;;5096285;27;20717;-80
2022/09/03 10:41:03;;;;;;;6.45;5.85;;;;;;;;;;5115416;27;20039;-82
2022/09/03 10:43:47;;;;;;;9.70;9.00;;;;;;;;;;5113220;27;20096;-83
2022/09/03 10:46:14;;;;;;;7.15;6.50;;;;;;;;;;5117992;27;20072;-78
2022/09/03 10:48:58;;;;;;;6.07;5.60;;;;;;;;;;5118168;27;20027;-77
2022/09/03 10:51:32;;;;;;;6.18;5.68;;;;;;;;;;5118486;27;20026;-80
2022/09/03 10:54:01;;;;;;;5.78;5.28;;;;;;;;;;5120223;28;20038;-78
2022/09/03 10:56:26;;;;;;;7.10;6.50;;;;;;;;;;5115152;28;20042;-76
2022/09/03 10:58:54;;;;;;;11.13;8.10;;;;;;;;;;5116800;28;20430;-80
2022/09/03 11:01:26;;;;;;;8.93;8.23;;;;;;;;;;5116037;28;20152;-77
2022/09/03 11:03:51;;;;;;;11.05;10.00;;;;;;;;;;5114203;28;20279;-76
2022/09/03 11:06:23;;;;;;;10.82;9.73;;;;;;;;;;5114317;28;20019;-74
2022/09/03 11:08:54;;;;;;;11.18;10.05;;;;;;;;;;5115515;28;20028;-77
2022/09/03 11:11:30;;;;;;;10.38;9.57;;;;;;;;;;5115782;28;20023;-79
2022/09/03 11:13:59;;;;;;;10.38;9.57;;;;;;;;;;5116455;28;20058;-78
2022/09/03 11:16:32;;;;;;;13.82;10.73;;;;;;;;;;5111385;28;20050;-76
2022/09/03 11:19:05;;;;;;;11.05;10.05;;;;;;;;;;5110263;28;20023;-86
2022/09/03 11:21:33;;;;;;;10.85;9.93;;;;;;;;;;5118158;28;20027;-82
2022/09/03 11:24:21;;;;;;;12.63;11.52;;;;;;;;;;5116757;28;20458;-82
2022/09/03 11:26:53;;;;;;;11.95;10.45;;;;;;;;;;5118405;28;20042;-77
2022/09/03 11:29:30;;;;;;;14.30;12.95;;;;;;;;;;5117118;28;20039;-77
2022/09/03 11:32:09;;;;;;;16.23;14.65;;;;;;;;;;5090871;28;20080;-77
2022/09/03 11:34:46;;;;;;;14.25;13.05;;;;;;;;;;5096786;28;20024;-78
2022/09/03 11:37:25;;;;;;;14.15;12.85;;;;;;;;;;5102912;28;20074;-78
2022/09/03 11:39:51;;;;;;;;;;;;;;;;;;5096702;28;20024;-78
2022/09/03 11:42:28;;;;;;;14.90;13.47;;;;;;;;;;5099248;27;19950;-79
2022/09/03 11:44:58;;;;;;;15.93;14.43;;;;;;;;;;5101991;27;20030;-78
2022/09/03 11:47:36;;;;;;;17.60;15.90;;;;;;;;;;5102470;27;20447;-77
2022/09/03 11:50:27;;;;;;;16.02;14.52;;;;;;;;;;5105589;27;20023;-81
2022/09/03 11:53:09;;;;;;;18.58;16.85;;;;;;;;;;5098135;27;20034;-76
2022/09/03 11:55:52;;;;;;;18.27;16.48;;;;;;;;;;5116844;27;20073;-79
2022/09/03 11:58:24;;;;;;;31.23;26.77;;;;;;;;;;5118826;27;20057;-76
2022/09/03 12:00:53;;;;;;;30.15;27.17;;;;;;;;;;5115662;27;20123;-75
2022/09/03 12:03:26;;;;;;;22.30;19.40;;;;;;;;;;5108308;27;20055;-79
2022/09/03 12:06:15;;;;;;;20.67;18.63;;;;;;;;;;5113999;27;20028;-77
2022/09/03 12:08:42;;;;;;;21.25;19.35;;;;;;;;;;5115742;27;20073;-75
2022/09/03 12:11:13;;;;;;;24.70;22.05;;;;;;;;;;5119617;27;20031;-78
2022/09/03 12:13:57;;;;;;;23.52;21.42;;;;;;;;;;5119034;27;20045;-76
2022/09/03 12:16:35;;;;;;;23.95;21.75;;;;;;;;;;5115682;27;20028;-81
2022/09/03 12:19:07;;;;;;;24.75;22.35;;;;;;;;;;5119035;27;20023;-81
2022/09/03 12:21:36;;;;;;;23.02;20.83;;;;;;;;;;5101893;27;20350;-80
2022/09/03 12:24:02;;;;;;;20.60;18.80;;;;;;;;;;5118713;27;20392;-79
2022/09/03 12:26:27;;;;;;;20.70;18.70;;;;;;;;;;5114902;27;20039;-79
2022/09/03 12:28:57;;;;;;;19.70;17.63;;;;;;;;;;5117664;27;20027;-78
2022/09/03 12:31:24;;;;;;;21.05;19.15;;;;;;;;;;5118843;27;20050;-76
2022/09/03 12:33:53;;;;;;;32.90;29.33;;;;;;;;;;5107349;27;20032;-76
2022/09/03 12:36:18;;;;;;;;;;;;;;;;;;5102389;27;20034;-74
2022/09/03 12:38:46;;;;;;;20.33;18.33;;;;;;;;;;5100732;27;19915;-76
2022/09/03 12:41:29;;;;;;;23.33;21.13;;;;;;;;;;5101877;27;20031;-76
2022/09/03 12:43:59;;;;;;;25.77;23.40;;;;;;;;;;5111289;27;20054;-75
2022/09/03 12:46:29;;;;;;;24.58;22.27;;;;;;;;;;5120169;27;20110;-75
2022/09/03 12:48:55;;;;;;;21.25;19.15;;;;;;;;;;5120693;27;20396;-75
2022/09/03 12:51:21;;;;;;;22.42;20.35;;;;;;;;;;5119835;27;20032;-75
2022/09/03 12:53:46;;;;;;;25.02;22.70;;;;;;;;;;5119460;27;20092;-76
2022/09/03 12:56:13;;;;;;;21.00;18.92;;;;;;;;;;5103670;27;20069;-75
2022/09/03 12:58:51;;;;;;;14.60;13.20;;;;;;;;;;5120064;27;20023;-76
2022/09/03 13:01:20;;;;;;;14.77;13.52;;;;;;;;;;5119322;27;20442;-76
2022/09/03 13:04:06;;;;;;;15.00;13.60;;;;;;;;;;5117501;27;20048;-76
2022/09/03 13:06:45;;;;;;;14.32;13.02;;;;;;;;;;5102432;27;20113;-79
2022/09/03 13:09:12;;;;;;;12.15;11.00;;;;;;;;;;5105412;27;20495;-76
2022/09/03 13:11:38;;;;;;;14.60;13.30;;;;;;;;;;5118858;27;20357;-75
2022/09/03 13:14:08;;;;;;;15.57;14.18;;;;;;;;;;5105024;27;20041;-78
2022/09/03 13:16:36;;;;;;;13.80;12.50;;;;;;;;;;5101107;27;20023;-78
2022/09/03 13:19:17;;;;;;;15.65;14.25;;;;;;;;;;5098805;27;20026;-80
2022/09/03 13:22:01;;;;;;;15.85;14.45;;;;;;;;;;5103552;27;20448;-76
2022/09/03 13:24:44;;;;;;;14.90;13.50;;;;;;;;;;5098404;27;20073;-76
2022/09/03 13:27:32;;;;;;;12.60;11.40;;;;;;;;;;5080730;27;20268;-75
2022/09/03 13:29:58;;;;;;;12.40;11.40;;;;;;;;;;5112085;27;20045;-76
2022/09/03 13:32:38;;;;;;;14.50;13.20;;;;;;;;;;5118314;27;20722;-77
2022/09/03 13:35:06;;;;;;;15.13;13.68;;;;;;;;;;5105510;27;20398;-77
2022/09/03 13:37:44;;;;;;;15.93;14.52;;;;;;;;;;5116941;27;20393;-75
2022/09/03 13:40:22;;;;;;;16.05;14.45;;;;;;;;;;5117913;27;20043;-75
2022/09/03 13:42:54;;;;;;;15.48;14.18;;;;;;;;;;5117300;27;20354;-76
2022/09/03 13:45:27;;;;;;;14.93;13.52;;;;;;;;;;5120235;27;20030;-76
2022/09/03 13:51:08;;;;;;;14.07;12.65;;;;;;;;;;5103783;27;20030;-77
2022/09/03 13:53:56;;;;;;;15.15;13.82;;;;;;;;;;5099258;27;20047;-76
2022/09/03 13:56:34;;;;;;;16.35;14.52;;;;;;;;;;5097306;27;20421;-77
2022/09/03 13:59:06;;;;;;;14.18;12.88;;;;;;;;;;5096172;27;20101;-77
2022/09/03 14:01:52;;;;;;;15.23;13.90;;;;;;;;;;5099857;27;20024;-76
2022/09/03 14:04:21;;;;;;;16.48;14.82;;;;;;;;;;5096684;27;20030;-77
2022/09/03 14:06:56;;;;;;;15.15;13.85;;;;;;;;;;5094848;27;20043;-77
2022/09/03 14:09:40;;;;;;;16.50;14.98;;;;;;;;;;5097610;27;20023;-75
2022/09/03 14:12:24;;;;;;;14.07;12.77;;;;;;;;;;5106588;27;20080;-75
2022/09/03 14:14:55;;;;;;;16.92;15.43;;;;;;;;;;5104886;27;20582;-77
2022/09/03 14:17:24;;;;;;;23.35;21.02;;;;;;;;;;5095842;27;20336;-77
2022/09/03 14:20:11;;;;;;;20.65;18.65;;;;;;;;;;5096221;27;20401;-75
2022/09/03 14:22:54;;;;;;;16.73;15.13;;;;;;;;;;5095436;27;20100;-79
2022/09/03 14:25:21;;;;;;;18.27;16.48;;;;;;;;;;5099735;27;20119;-77
2022/09/03 14:27:46;;;;;;;18.92;16.05;;;;;;;;;;5097682;27;20027;-75
2022/09/03 14:30:30;;;;;;;18.80;17.10;;;;;;;;;;5098230;27;20039;-78
2022/09/03 14:33:14;;;;;;;18.42;16.52;;;;;;;;;;5098690;27;20035;-78
2022/09/03 14:35:58;;;;;;;16.65;15.00;;;;;;;;;;5098905;27;20023;-77
2022/09/03 14:38:23;;;;;;;17.55;16.02;;;;;;;;;;5101294;27;20046;-78
2022/09/03 14:41:09;;;;;;;17.23;15.55;;;;;;;;;;5097087;27;20370;-76
2022/09/03 14:43:40;;;;;;;23.15;20.75;;;;;;;;;;5084212;27;20055;-79
2022/09/03 14:46:05;;;;;;;17.63;16.02;;;;;;;;;;5097516;27;20030;-78
2022/09/03 14:48:43;;;;;;;17.85;16.08;;;;;;;;;;5098871;27;20032;-80